sensor_id;sensor_type;location;lat;lon;timestamp;P1;durP1;ratioP1;P2;durP2;ratioP2
15616;SDS011;7908;51.688;7.130;2023-06-24T00:02:19;10.70;;;7.80;;
15616;SDS011;7908;51.688;7.130;2023-06-24T00:04:50;8.47;;;7.67;;
15616;SDS011;7908;51.688;7.130;2023-06-24T00:07:21;9.10;;;7.87;;
15616;SDS011;7908;51.688;7.130;2023-06-24T00:09:49;10.03;;;8.23;;
15616;SDS011;7908;51.688;7.130;2023-06-24T00:12:18;9.73;;;7.97;;
15616;SDS011;7908;51.688;7.130;2023-06-24T00:14:48;10.00;;;7.57;;
15616;SDS011;7908;51.688;7.130;2023-06-24T00:17:17;10.37;;;7.60;;
15616;SDS011;7908;51.688;7.130;2023-06-24T00:19:46;10.67;;;7.37;;
15616;SDS011;7908;51.688;7.130;2023-06-24T00:22:15;9.00;;;8.10;;
15616;SDS011;7908;51.688;7.130;2023-06-24T00:24:45;8.47;;;7.67;;
15616;SDS011;7908;51.688;7.130;2023-06-24T00:27:14;11.93;;;8.00;;
15616;SDS011;7908;51.688;7.130;2023-06-24T00:29:43;8.60;;;7.80;;
15616;SDS011;7908;51.688;7.130;2023-06-24T00:32:12;8.60;;;7.83;;
15616;SDS011;7908;51.688;7.130;2023-06-24T00:34:41;9.90;;;8.23;;
15616;SDS011;7908;51.688;7.130;2023-06-24T00:37:10;9.60;;;8.70;;
15616;SDS011;7908;51.688;7.130;2023-06-24T00:39:39;9.43;;;8.27;;
15616;SDS011;7908;51.688;7.130;2023-06-24T00:42:09;9.20;;;8.30;;
15616;SDS011;7908;51.688;7.130;2023-06-24T00:44:38;8.67;;;7.97;;
15616;SDS011;7908;51.688;7.130;2023-06-24T00:47:07;9.03;;;7.47;;
15616;SDS011;7908;51.688;7.130;2023-06-24T00:49:36;9.07;;;8.23;;
15616;SDS011;7908;51.688;7.130;2023-06-24T00:52:05;9.07;;;8.17;;
15616;SDS011;7908;51.688;7.130;2023-06-24T00:54:37;9.83;;;8.83;;
15616;SDS011;7908;51.688;7.130;2023-06-24T00:57:06;9.67;;;7.90;;
15616;SDS011;7908;51.688;7.130;2023-06-24T00:59:36;9.17;;;8.33;;
15616;SDS011;7908;51.688;7.130;2023-06-24T01:02:06;8.87;;;8.07;;
15616;SDS011;7908;51.688;7.130;2023-06-24T01:04:35;9.53;;;8.63;;
15616;SDS011;7908;51.688;7.130;2023-06-24T01:07:04;8.67;;;7.73;;
15616;SDS011;7908;51.688;7.130;2023-06-24T01:09:34;8.97;;;8.13;;
15616;SDS011;7908;51.688;7.130;2023-06-24T01:12:06;9.27;;;8.37;;
15616;SDS011;7908;51.688;7.130;2023-06-24T01:14:37;8.27;;;7.47;;
15616;SDS011;7908;51.688;7.130;2023-06-24T01:17:08;9.67;;;8.33;;
15616;SDS011;7908;51.688;7.130;2023-06-24T01:19:51;8.77;;;7.97;;
15616;SDS011;7908;51.688;7.130;2023-06-24T01:22:31;11.50;;;8.23;;
15616;SDS011;7908;51.688;7.130;2023-06-24T01:25:20;8.83;;;8.03;;
15616;SDS011;7908;51.688;7.130;2023-06-24T01:28:16;9.70;;;8.73;;
15616;SDS011;7908;51.688;7.130;2023-06-24T01:31:00;9.23;;;8.33;;
15616;SDS011;7908;51.688;7.130;2023-06-24T01:33:45;11.10;;;8.77;;
15616;SDS011;7908;51.688;7.130;2023-06-24T01:36:20;9.73;;;8.57;;
15616;SDS011;7908;51.688;7.130;2023-06-24T01:38:55;8.80;;;7.83;;
15616;SDS011;7908;51.688;7.130;2023-06-24T01:41:31;8.60;;;7.70;;
15616;SDS011;7908;51.688;7.130;2023-06-24T01:44:03;8.67;;;7.77;;
15616;SDS011;7908;51.688;7.130;2023-06-24T01:46:35;9.20;;;8.27;;
15616;SDS011;7908;51.688;7.130;2023-06-24T01:49:04;8.93;;;8.13;;
15616;SDS011;7908;51.688;7.130;2023-06-24T01:51:35;8.90;;;8.00;;
15616;SDS011;7908;51.688;7.130;2023-06-24T01:54:09;11.63;;;8.73;;
15616;SDS011;7908;51.688;7.130;2023-06-24T01:56:41;9.90;;;8.77;;
15616;SDS011;7908;51.688;7.130;2023-06-24T01:59:11;9.60;;;7.93;;
15616;SDS011;7908;51.688;7.130;2023-06-24T02:01:42;11.97;;;8.60;;
15616;SDS011;7908;51.688;7.130;2023-06-24T02:04:11;9.33;;;7.87;;
15616;SDS011;7908;51.688;7.130;2023-06-24T02:06:42;8.77;;;7.90;;
15616;SDS011;7908;51.688;7.130;2023-06-24T02:09:12;9.07;;;8.07;;
15616;SDS011;7908;51.688;7.130;2023-06-24T02:11:43;9.10;;;8.20;;
15616;SDS011;7908;51.688;7.130;2023-06-24T02:14:12;13.17;;;7.90;;
15616;SDS011;7908;51.688;7.130;2023-06-24T02:16:45;8.33;;;7.63;;
15616;SDS011;7908;51.688;7.130;2023-06-24T02:19:15;9.50;;;7.83;;
15616;SDS011;7908;51.688;7.130;2023-06-24T02:21:45;10.83;;;8.23;;
15616;SDS011;7908;51.688;7.130;2023-06-24T02:24:15;10.30;;;9.13;;
15616;SDS011;7908;51.688;7.130;2023-06-24T02:26:43;11.80;;;8.77;;
15616;SDS011;7908;51.688;7.130;2023-06-24T02:29:13;10.37;;;8.10;;
15616;SDS011;7908;51.688;7.130;2023-06-24T02:31:42;10.87;;;8.33;;
15616;SDS011;7908;51.688;7.130;2023-06-24T02:34:12;10.40;;;7.97;;
15616;SDS011;7908;51.688;7.130;2023-06-24T02:36:42;8.67;;;7.87;;
15616;SDS011;7908;51.688;7.130;2023-06-24T02:39:11;9.03;;;8.13;;
15616;SDS011;7908;51.688;7.130;2023-06-24T02:41:40;9.13;;;8.23;;
15616;SDS011;7908;51.688;7.130;2023-06-24T02:44:10;10.03;;;8.30;;
15616;SDS011;7908;51.688;7.130;2023-06-24T02:46:39;8.70;;;7.90;;
15616;SDS011;7908;51.688;7.130;2023-06-24T02:49:10;8.40;;;7.67;;
15616;SDS011;7908;51.688;7.130;2023-06-24T02:51:44;8.50;;;7.60;;
15616;SDS011;7908;51.688;7.130;2023-06-24T02:54:13;9.53;;;7.77;;
15616;SDS011;7908;51.688;7.130;2023-06-24T02:56:42;8.93;;;8.13;;
15616;SDS011;7908;51.688;7.130;2023-06-24T02:59:11;9.23;;;8.33;;
15616;SDS011;7908;51.688;7.130;2023-06-24T03:01:40;9.93;;;8.33;;
15616;SDS011;7908;51.688;7.130;2023-06-24T03:04:12;9.07;;;8.10;;
15616;SDS011;7908;51.688;7.130;2023-06-24T03:06:41;10.97;;;8.60;;
15616;SDS011;7908;51.688;7.130;2023-06-24T03:09:11;9.60;;;8.43;;
15616;SDS011;7908;51.688;7.130;2023-06-24T03:11:42;9.40;;;8.47;;
15616;SDS011;7908;51.688;7.130;2023-06-24T03:14:10;11.80;;;8.53;;
15616;SDS011;7908;51.688;7.130;2023-06-24T03:16:39;11.03;;;8.27;;
15616;SDS011;7908;51.688;7.130;2023-06-24T03:19:09;15.67;;;8.77;;
15616;SDS011;7908;51.688;7.130;2023-06-24T03:21:39;9.83;;;8.93;;
15616;SDS011;7908;51.688;7.130;2023-06-24T03:24:07;10.40;;;9.50;;
15616;SDS011;7908;51.688;7.130;2023-06-24T03:26:37;10.73;;;9.63;;
15616;SDS011;7908;51.688;7.130;2023-06-24T03:29:06;10.13;;;9.03;;
15616;SDS011;7908;51.688;7.130;2023-06-24T03:31:35;10.43;;;9.40;;
15616;SDS011;7908;51.688;7.130;2023-06-24T03:34:03;9.80;;;8.73;;
15616;SDS011;7908;51.688;7.130;2023-06-24T03:36:32;10.00;;;9.00;;
15616;SDS011;7908;51.688;7.130;2023-06-24T03:39:06;9.87;;;8.80;;
15616;SDS011;7908;51.688;7.130;2023-06-24T03:41:35;10.77;;;8.17;;
15616;SDS011;7908;51.688;7.130;2023-06-24T03:44:03;9.03;;;8.13;;
15616;SDS011;7908;51.688;7.130;2023-06-24T03:46:32;9.77;;;8.23;;
15616;SDS011;7908;51.688;7.130;2023-06-24T03:49:00;8.47;;;7.67;;
15616;SDS011;7908;51.688;7.130;2023-06-24T03:51:29;9.57;;;8.57;;
15616;SDS011;7908;51.688;7.130;2023-06-24T03:53:58;9.47;;;8.57;;
15616;SDS011;7908;51.688;7.130;2023-06-24T03:56:28;9.53;;;8.63;;
15616;SDS011;7908;51.688;7.130;2023-06-24T03:58:56;10.97;;;9.87;;
15616;SDS011;7908;51.688;7.130;2023-06-24T04:01:25;9.13;;;8.33;;
15616;SDS011;7908;51.688;7.130;2023-06-24T04:03:58;9.47;;;8.57;;
15616;SDS011;7908;51.688;7.130;2023-06-24T04:06:27;11.33;;;8.60;;
15616;SDS011;7908;51.688;7.130;2023-06-24T04:08:55;12.23;;;9.40;;
15616;SDS011;7908;51.688;7.130;2023-06-24T04:11:24;9.77;;;8.87;;
15616;SDS011;7908;51.688;7.130;2023-06-24T04:13:54;9.17;;;8.37;;
15616;SDS011;7908;51.688;7.130;2023-06-24T04:16:22;9.80;;;8.90;;
15616;SDS011;7908;51.688;7.130;2023-06-24T04:18:51;11.33;;;9.03;;
15616;SDS011;7908;51.688;7.130;2023-06-24T04:21:19;10.00;;;9.10;;
15616;SDS011;7908;51.688;7.130;2023-06-24T04:23:48;8.97;;;8.00;;
15616;SDS011;7908;51.688;7.130;2023-06-24T04:26:17;11.30;;;8.67;;
15616;SDS011;7908;51.688;7.130;2023-06-24T04:28:45;10.17;;;9.23;;
15616;SDS011;7908;51.688;7.130;2023-06-24T04:31:16;10.67;;;9.07;;
15616;SDS011;7908;51.688;7.130;2023-06-24T04:33:44;9.37;;;8.37;;
15616;SDS011;7908;51.688;7.130;2023-06-24T04:36:14;9.63;;;8.73;;
15616;SDS011;7908;51.688;7.130;2023-06-24T04:38:42;8.87;;;8.00;;
15616;SDS011;7908;51.688;7.130;2023-06-24T04:41:11;9.07;;;8.17;;
15616;SDS011;7908;51.688;7.130;2023-06-24T04:43:42;8.57;;;7.77;;
15616;SDS011;7908;51.688;7.130;2023-06-24T04:46:11;8.77;;;7.63;;
15616;SDS011;7908;51.688;7.130;2023-06-24T04:48:41;8.10;;;7.27;;
15616;SDS011;7908;51.688;7.130;2023-06-24T04:51:09;8.00;;;7.30;;
15616;SDS011;7908;51.688;7.130;2023-06-24T04:53:38;8.07;;;7.23;;
15616;SDS011;7908;51.688;7.130;2023-06-24T04:56:07;9.50;;;7.23;;
15616;SDS011;7908;51.688;7.130;2023-06-24T04:58:35;8.13;;;7.33;;
15616;SDS011;7908;51.688;7.130;2023-06-24T05:01:03;8.40;;;7.27;;
15616;SDS011;7908;51.688;7.130;2023-06-24T05:03:33;9.20;;;7.80;;
15616;SDS011;7908;51.688;7.130;2023-06-24T05:06:03;10.50;;;9.37;;
15616;SDS011;7908;51.688;7.130;2023-06-24T05:08:36;12.57;;;10.47;;
15616;SDS011;7908;51.688;7.130;2023-06-24T05:11:05;10.37;;;8.77;;
15616;SDS011;7908;51.688;7.130;2023-06-24T05:13:33;9.40;;;8.40;;
15616;SDS011;7908;51.688;7.130;2023-06-24T05:16:02;10.33;;;8.80;;
15616;SDS011;7908;51.688;7.130;2023-06-24T05:18:31;10.20;;;8.37;;
15616;SDS011;7908;51.688;7.130;2023-06-24T05:21:00;12.63;;;9.23;;
15616;SDS011;7908;51.688;7.130;2023-06-24T05:23:30;11.73;;;10.40;;
15616;SDS011;7908;51.688;7.130;2023-06-24T05:25:58;12.03;;;10.80;;
15616;SDS011;7908;51.688;7.130;2023-06-24T05:28:27;11.23;;;9.40;;
15616;SDS011;7908;51.688;7.130;2023-06-24T05:30:56;8.33;;;7.37;;
15616;SDS011;7908;51.688;7.130;2023-06-24T05:33:25;10.13;;;7.80;;
15616;SDS011;7908;51.688;7.130;2023-06-24T05:35:53;10.20;;;8.37;;
15616;SDS011;7908;51.688;7.130;2023-06-24T05:38:22;8.80;;;7.57;;
15616;SDS011;7908;51.688;7.130;2023-06-24T05:40:52;10.97;;;8.77;;
15616;SDS011;7908;51.688;7.130;2023-06-24T05:43:21;8.63;;;7.73;;
15616;SDS011;7908;51.688;7.130;2023-06-24T05:45:49;8.18;;;7.35;;
15616;SDS011;7908;51.688;7.130;2023-06-24T05:48:18;12.85;;;7.50;;
15616;SDS011;7908;51.688;7.130;2023-06-24T05:50:47;7.80;;;7.10;;
15616;SDS011;7908;51.688;7.130;2023-06-24T05:53:16;8.23;;;6.78;;
15616;SDS011;7908;51.688;7.130;2023-06-24T05:55:45;9.37;;;7.33;;
15616;SDS011;7908;51.688;7.130;2023-06-24T05:58:15;9.77;;;7.10;;
15616;SDS011;7908;51.688;7.130;2023-06-24T06:00:43;8.60;;;7.70;;
15616;SDS011;7908;51.688;7.130;2023-06-24T06:03:14;8.77;;;7.22;;
15616;SDS011;7908;51.688;7.130;2023-06-24T06:05:43;7.28;;;6.28;;
15616;SDS011;7908;51.688;7.130;2023-06-24T06:08:12;7.95;;;7.15;;
15616;SDS011;7908;51.688;7.130;2023-06-24T06:10:40;8.18;;;6.07;;
15616;SDS011;7908;51.688;7.130;2023-06-24T06:13:09;7.05;;;6.10;;
15616;SDS011;7908;51.688;7.130;2023-06-24T06:15:39;7.45;;;6.05;;
15616;SDS011;7908;51.688;7.130;2023-06-24T06:18:07;7.70;;;5.97;;
15616;SDS011;7908;51.688;7.130;2023-06-24T06:20:36;9.38;;;6.18;;
15616;SDS011;7908;51.688;7.130;2023-06-24T06:23:05;9.32;;;6.35;;
15616;SDS011;7908;51.688;7.130;2023-06-24T06:25:35;11.35;;;6.35;;
15616;SDS011;7908;51.688;7.130;2023-06-24T06:28:05;6.70;;;6.10;;
15616;SDS011;7908;51.688;7.130;2023-06-24T06:30:33;7.93;;;6.13;;
15616;SDS011;7908;51.688;7.130;2023-06-24T06:33:03;7.05;;;5.90;;
15616;SDS011;7908;51.688;7.130;2023-06-24T06:35:32;7.28;;;5.90;;
15616;SDS011;7908;51.688;7.130;2023-06-24T06:38:04;8.68;;;7.53;;
15616;SDS011;7908;51.688;7.130;2023-06-24T06:40:33;7.25;;;6.55;;
15616;SDS011;7908;51.688;7.130;2023-06-24T06:43:02;8.43;;;6.38;;
15616;SDS011;7908;51.688;7.130;2023-06-24T06:45:30;10.63;;;7.47;;
15616;SDS011;7908;51.688;7.130;2023-06-24T06:48:01;10.50;;;6.85;;
15616;SDS011;7908;51.688;7.130;2023-06-24T06:50:34;10.52;;;7.88;;
15616;SDS011;7908;51.688;7.130;2023-06-24T06:53:02;11.23;;;6.82;;
15616;SDS011;7908;51.688;7.130;2023-06-24T06:55:31;10.55;;;6.05;;
15616;SDS011;7908;51.688;7.130;2023-06-24T06:58:01;9.63;;;7.35;;
15616;SDS011;7908;51.688;7.130;2023-06-24T07:00:29;10.32;;;7.55;;
15616;SDS011;7908;51.688;7.130;2023-06-24T07:02:58;9.88;;;7.75;;
15616;SDS011;7908;51.688;7.130;2023-06-24T07:05:29;9.35;;;7.53;;
15616;SDS011;7908;51.688;7.130;2023-06-24T07:08:02;8.95;;;7.35;;
15616;SDS011;7908;51.688;7.130;2023-06-24T07:10:36;9.70;;;8.02;;
15616;SDS011;7908;51.688;7.130;2023-06-24T07:13:05;9.48;;;6.95;;
15616;SDS011;7908;51.688;7.130;2023-06-24T07:15:34;7.90;;;6.63;;
15616;SDS011;7908;51.688;7.130;2023-06-24T07:18:03;9.77;;;7.93;;
15616;SDS011;7908;51.688;7.130;2023-06-24T07:20:33;10.35;;;6.72;;
15616;SDS011;7908;51.688;7.130;2023-06-24T07:23:02;11.18;;;7.28;;
15616;SDS011;7908;51.688;7.130;2023-06-24T07:25:31;10.13;;;7.38;;
15616;SDS011;7908;51.688;7.130;2023-06-24T07:28:01;8.65;;;7.72;;
15616;SDS011;7908;51.688;7.130;2023-06-24T07:30:31;11.27;;;8.68;;
15616;SDS011;7908;51.688;7.130;2023-06-24T07:33:03;10.50;;;8.77;;
15616;SDS011;7908;51.688;7.130;2023-06-24T07:35:37;11.80;;;7.97;;
15616;SDS011;7908;51.688;7.130;2023-06-24T07:38:08;10.65;;;7.93;;
15616;SDS011;7908;51.688;7.130;2023-06-24T07:40:38;9.85;;;8.02;;
15616;SDS011;7908;51.688;7.130;2023-06-24T07:43:06;8.90;;;6.63;;
15616;SDS011;7908;51.688;7.130;2023-06-24T07:45:35;10.65;;;7.25;;
15616;SDS011;7908;51.688;7.130;2023-06-24T07:48:04;8.65;;;6.95;;
15616;SDS011;7908;51.688;7.130;2023-06-24T07:50:34;9.25;;;7.85;;
15616;SDS011;7908;51.688;7.130;2023-06-24T07:53:05;9.68;;;7.50;;
15616;SDS011;7908;51.688;7.130;2023-06-24T07:55:34;10.25;;;7.30;;
15616;SDS011;7908;51.688;7.130;2023-06-24T07:58:03;11.20;;;10.10;;
15616;SDS011;7908;51.688;7.130;2023-06-24T08:00:33;11.15;;;9.27;;
15616;SDS011;7908;51.688;7.130;2023-06-24T08:03:05;10.55;;;8.38;;
15616;SDS011;7908;51.688;7.130;2023-06-24T08:05:38;12.63;;;9.55;;
15616;SDS011;7908;51.688;7.130;2023-06-24T08:08:08;12.27;;;9.40;;
15616;SDS011;7908;51.688;7.130;2023-06-24T08:10:37;12.70;;;8.32;;
15616;SDS011;7908;51.688;7.130;2023-06-24T08:13:06;10.57;;;9.00;;
15616;SDS011;7908;51.688;7.130;2023-06-24T08:15:35;11.07;;;9.00;;
15616;SDS011;7908;51.688;7.130;2023-06-24T08:18:08;10.27;;;9.23;;
15616;SDS011;7908;51.688;7.130;2023-06-24T08:20:36;10.40;;;8.43;;
15616;SDS011;7908;51.688;7.130;2023-06-24T08:23:05;11.70;;;9.65;;
15616;SDS011;7908;51.688;7.130;2023-06-24T08:25:38;9.25;;;8.27;;
15616;SDS011;7908;51.688;7.130;2023-06-24T08:28:08;12.32;;;8.88;;
15616;SDS011;7908;51.688;7.130;2023-06-24T08:30:36;13.57;;;8.98;;
15616;SDS011;7908;51.688;7.130;2023-06-24T08:33:06;13.13;;;8.77;;
15616;SDS011;7908;51.688;7.130;2023-06-24T08:35:37;10.48;;;8.63;;
15616;SDS011;7908;51.688;7.130;2023-06-24T08:38:06;14.02;;;10.18;;
15616;SDS011;7908;51.688;7.130;2023-06-24T08:40:35;11.88;;;9.32;;
15616;SDS011;7908;51.688;7.130;2023-06-24T08:43:08;13.85;;;11.70;;
15616;SDS011;7908;51.688;7.130;2023-06-24T08:45:36;12.38;;;10.75;;
15616;SDS011;7908;51.688;7.130;2023-06-24T08:48:06;12.05;;;8.82;;
15616;SDS011;7908;51.688;7.130;2023-06-24T08:50:43;13.80;;;9.95;;
15616;SDS011;7908;51.688;7.130;2023-06-24T08:53:14;13.90;;;9.18;;
15616;SDS011;7908;51.688;7.130;2023-06-24T08:55:44;13.25;;;9.48;;
15616;SDS011;7908;51.688;7.130;2023-06-24T08:58:17;12.23;;;9.55;;
15616;SDS011;7908;51.688;7.130;2023-06-24T09:00:46;13.13;;;9.38;;
15616;SDS011;7908;51.688;7.130;2023-06-24T09:03:15;15.38;;;9.65;;
15616;SDS011;7908;51.688;7.130;2023-06-24T09:05:45;16.58;;;9.77;;
15616;SDS011;7908;51.688;7.130;2023-06-24T09:08:17;15.07;;;9.60;;
15616;SDS011;7908;51.688;7.130;2023-06-24T09:10:52;13.70;;;9.93;;
15616;SDS011;7908;51.688;7.130;2023-06-24T09:13:28;10.50;;;7.90;;
15616;SDS011;7908;51.688;7.130;2023-06-24T09:16:14;13.93;;;9.68;;
15616;SDS011;7908;51.688;7.130;2023-06-24T09:18:47;13.45;;;10.20;;
15616;SDS011;7908;51.688;7.130;2023-06-24T09:21:23;15.20;;;9.20;;
15616;SDS011;7908;51.688;7.130;2023-06-24T09:23:54;10.57;;;8.00;;
15616;SDS011;7908;51.688;7.130;2023-06-24T09:26:27;6.82;;;4.80;;
15616;SDS011;7908;51.688;7.130;2023-06-24T09:29:01;7.00;;;4.55;;
15616;SDS011;7908;51.688;7.130;2023-06-24T09:31:35;7.35;;;4.32;;
15616;SDS011;7908;51.688;7.130;2023-06-24T09:34:04;7.05;;;4.78;;
15616;SDS011;7908;51.688;7.130;2023-06-24T09:36:44;9.32;;;5.03;;
15616;SDS011;7908;51.688;7.130;2023-06-24T09:39:19;7.38;;;5.07;;
15616;SDS011;7908;51.688;7.130;2023-06-24T09:42:04;5.47;;;4.63;;
15616;SDS011;7908;51.688;7.130;2023-06-24T09:44:38;6.13;;;4.38;;
15616;SDS011;7908;51.688;7.130;2023-06-24T09:47:08;5.25;;;4.63;;
15616;SDS011;7908;51.688;7.130;2023-06-24T09:49:37;5.15;;;4.45;;
15616;SDS011;7908;51.688;7.130;2023-06-24T09:52:10;6.63;;;4.72;;
15616;SDS011;7908;51.688;7.130;2023-06-24T09:54:45;8.65;;;4.50;;
15616;SDS011;7908;51.688;7.130;2023-06-24T09:57:29;7.38;;;5.80;;
15616;SDS011;7908;51.688;7.130;2023-06-24T10:00:05;6.32;;;5.65;;
15616;SDS011;7908;51.688;7.130;2023-06-24T10:02:54;7.10;;;5.10;;
15616;SDS011;7908;51.688;7.130;2023-06-24T10:05:31;5.53;;;4.50;;
15616;SDS011;7908;51.688;7.130;2023-06-24T10:08:10;6.07;;;4.40;;
15616;SDS011;7908;51.688;7.130;2023-06-24T10:10:52;6.28;;;4.47;;
15616;SDS011;7908;51.688;7.130;2023-06-24T10:13:33;4.70;;;4.22;;
15616;SDS011;7908;51.688;7.130;2023-06-24T10:16:11;5.97;;;4.53;;
15616;SDS011;7908;51.688;7.130;2023-06-24T10:18:46;5.13;;;3.90;;
15616;SDS011;7908;51.688;7.130;2023-06-24T10:21:16;4.15;;;3.75;;
15616;SDS011;7908;51.688;7.130;2023-06-24T10:23:53;5.07;;;3.85;;
15616;SDS011;7908;51.688;7.130;2023-06-24T10:26:30;5.38;;;4.30;;
15616;SDS011;7908;51.688;7.130;2023-06-24T10:29:10;3.92;;;3.42;;
15616;SDS011;7908;51.688;7.130;2023-06-24T10:31:52;5.85;;;3.50;;
15616;SDS011;7908;51.688;7.130;2023-06-24T10:34:30;5.35;;;3.80;;
15616;SDS011;7908;51.688;7.130;2023-06-24T10:37:08;6.13;;;3.90;;
15616;SDS011;7908;51.688;7.130;2023-06-24T10:39:49;7.53;;;3.83;;
15616;SDS011;7908;51.688;7.130;2023-06-24T10:42:30;4.05;;;3.55;;
15616;SDS011;7908;51.688;7.130;2023-06-24T10:45:14;4.72;;;3.55;;
15616;SDS011;7908;51.688;7.130;2023-06-24T10:47:54;5.75;;;3.85;;
15616;SDS011;7908;51.688;7.130;2023-06-24T10:50:31;5.47;;;3.50;;
15616;SDS011;7908;51.688;7.130;2023-06-24T10:53:04;5.95;;;3.75;;
15616;SDS011;7908;51.688;7.130;2023-06-24T10:55:40;6.00;;;4.00;;
15616;SDS011;7908;51.688;7.130;2023-06-24T10:58:15;4.53;;;3.50;;
15616;SDS011;7908;51.688;7.130;2023-06-24T11:00:46;4.70;;;3.45;;
15616;SDS011;7908;51.688;7.130;2023-06-24T11:03:19;7.68;;;3.72;;
15616;SDS011;7908;51.688;7.130;2023-06-24T11:05:49;4.80;;;3.67;;
15616;SDS011;7908;51.688;7.130;2023-06-24T11:08:18;5.40;;;3.80;;
15616;SDS011;7908;51.688;7.130;2023-06-24T11:10:51;4.35;;;3.65;;
15616;SDS011;7908;51.688;7.130;2023-06-24T11:13:24;4.28;;;3.42;;
15616;SDS011;7908;51.688;7.130;2023-06-24T11:16:00;5.22;;;3.72;;
15616;SDS011;7908;51.688;7.130;2023-06-24T11:18:39;5.68;;;3.60;;
15616;SDS011;7908;51.688;7.130;2023-06-24T11:21:11;4.70;;;3.50;;
15616;SDS011;7908;51.688;7.130;2023-06-24T11:23:45;4.93;;;3.15;;
15616;SDS011;7908;51.688;7.130;2023-06-24T11:26:20;5.80;;;3.40;;
15616;SDS011;7908;51.688;7.130;2023-06-24T11:28:50;7.45;;;3.83;;
15616;SDS011;7908;51.688;7.130;2023-06-24T11:31:24;4.00;;;3.00;;
15616;SDS011;7908;51.688;7.130;2023-06-24T11:33:58;3.67;;;2.97;;
15616;SDS011;7908;51.688;7.130;2023-06-24T11:36:34;6.18;;;3.35;;
15616;SDS011;7908;51.688;7.130;2023-06-24T11:39:08;6.00;;;3.15;;
15616;SDS011;7908;51.688;7.130;2023-06-24T11:41:59;6.18;;;2.88;;
15616;SDS011;7908;51.688;7.130;2023-06-24T11:44:34;7.10;;;3.10;;
15616;SDS011;7908;51.688;7.130;2023-06-24T11:47:07;5.38;;;2.88;;
15616;SDS011;7908;51.688;7.130;2023-06-24T11:49:51;4.15;;;2.88;;
15616;SDS011;7908;51.688;7.130;2023-06-24T11:52:27;3.85;;;2.90;;
15616;SDS011;7908;51.688;7.130;2023-06-24T11:55:13;4.63;;;3.00;;
15616;SDS011;7908;51.688;7.130;2023-06-24T11:57:59;4.15;;;2.42;;
15616;SDS011;7908;51.688;7.130;2023-06-24T12:00:45;5.15;;;2.67;;
15616;SDS011;7908;51.688;7.130;2023-06-24T12:03:18;5.65;;;3.28;;
15616;SDS011;7908;51.688;7.130;2023-06-24T12:06:03;6.45;;;2.97;;
15616;SDS011;7908;51.688;7.130;2023-06-24T12:08:39;3.47;;;2.42;;
15616;SDS011;7908;51.688;7.130;2023-06-24T12:11:18;4.35;;;2.50;;
15616;SDS011;7908;51.688;7.130;2023-06-24T12:13:48;2.60;;;2.15;;
15616;SDS011;7908;51.688;7.130;2023-06-24T12:16:24;3.08;;;2.45;;
15616;SDS011;7908;51.688;7.130;2023-06-24T12:18:53;3.28;;;2.50;;
15616;SDS011;7908;51.688;7.130;2023-06-24T12:21:25;3.75;;;2.55;;
15616;SDS011;7908;51.688;7.130;2023-06-24T12:24:01;4.25;;;2.88;;
15616;SDS011;7908;51.688;7.130;2023-06-24T12:26:36;2.95;;;2.30;;
15616;SDS011;7908;51.688;7.130;2023-06-24T12:29:09;4.05;;;2.58;;
15616;SDS011;7908;51.688;7.130;2023-06-24T12:31:44;2.97;;;2.00;;
15616;SDS011;7908;51.688;7.130;2023-06-24T12:34:17;2.97;;;2.22;;
15616;SDS011;7908;51.688;7.130;2023-06-24T12:36:48;2.83;;;2.20;;
15616;SDS011;7908;51.688;7.130;2023-06-24T12:39:19;3.38;;;2.38;;
15616;SDS011;7908;51.688;7.130;2023-06-24T12:41:50;4.13;;;2.55;;
15616;SDS011;7908;51.688;7.130;2023-06-24T12:44:20;2.88;;;2.15;;
15616;SDS011;7908;51.688;7.130;2023-06-24T12:46:52;2.53;;;1.98;;
15616;SDS011;7908;51.688;7.130;2023-06-24T12:49:26;4.15;;;2.10;;
15616;SDS011;7908;51.688;7.130;2023-06-24T12:51:57;2.13;;;1.90;;
15616;SDS011;7908;51.688;7.130;2023-06-24T12:54:29;4.28;;;2.28;;
15616;SDS011;7908;51.688;7.130;2023-06-24T12:57:00;2.47;;;2.22;;
15616;SDS011;7908;51.688;7.130;2023-06-24T12:59:39;3.30;;;2.53;;
15616;SDS011;7908;51.688;7.130;2023-06-24T13:02:08;2.65;;;1.85;;
15616;SDS011;7908;51.688;7.130;2023-06-24T13:04:40;2.97;;;2.35;;
15616;SDS011;7908;51.688;7.130;2023-06-24T13:07:13;2.72;;;2.00;;
15616;SDS011;7908;51.688;7.130;2023-06-24T13:09:49;3.17;;;2.20;;
15616;SDS011;7908;51.688;7.130;2023-06-24T13:12:21;2.33;;;1.90;;
15616;SDS011;7908;51.688;7.130;2023-06-24T13:14:51;2.67;;;2.20;;
15616;SDS011;7908;51.688;7.130;2023-06-24T13:17:35;2.70;;;2.35;;
15616;SDS011;7908;51.688;7.130;2023-06-24T13:20:10;3.47;;;2.47;;
15616;SDS011;7908;51.688;7.130;2023-06-24T13:22:44;2.60;;;2.30;;
15616;SDS011;7908;51.688;7.130;2023-06-24T13:25:18;2.95;;;2.60;;
15616;SDS011;7908;51.688;7.130;2023-06-24T13:27:48;3.65;;;2.78;;
15616;SDS011;7908;51.688;7.130;2023-06-24T13:30:26;2.88;;;2.47;;
15616;SDS011;7908;51.688;7.130;2023-06-24T13:32:56;4.68;;;2.80;;
15616;SDS011;7908;51.688;7.130;2023-06-24T13:35:27;2.75;;;2.40;;
15616;SDS011;7908;51.688;7.130;2023-06-24T13:37:58;3.17;;;2.45;;
15616;SDS011;7908;51.688;7.130;2023-06-24T13:40:31;3.10;;;2.80;;
15616;SDS011;7908;51.688;7.130;2023-06-24T13:43:06;3.20;;;2.90;;
15616;SDS011;7908;51.688;7.130;2023-06-24T13:45:37;4.35;;;2.90;;
15616;SDS011;7908;51.688;7.130;2023-06-24T13:48:13;4.47;;;2.88;;
15616;SDS011;7908;51.688;7.130;2023-06-24T13:50:43;4.85;;;2.50;;
15616;SDS011;7908;51.688;7.130;2023-06-24T13:53:21;3.80;;;2.47;;
15616;SDS011;7908;51.688;7.130;2023-06-24T13:55:54;6.43;;;2.38;;
15616;SDS011;7908;51.688;7.130;2023-06-24T13:58:29;4.28;;;2.60;;
15616;SDS011;7908;51.688;7.130;2023-06-24T14:01:03;3.40;;;2.50;;
15616;SDS011;7908;51.688;7.130;2023-06-24T14:04:03;2.83;;;2.30;;
15616;SDS011;7908;51.688;7.130;2023-06-24T14:06:32;5.97;;;2.83;;
15616;SDS011;7908;51.688;7.130;2023-06-24T14:09:06;2.92;;;2.63;;
15616;SDS011;7908;51.688;7.130;2023-06-24T14:11:41;3.63;;;2.60;;
15616;SDS011;7908;51.688;7.130;2023-06-24T14:14:15;4.82;;;2.60;;
15616;SDS011;7908;51.688;7.130;2023-06-24T14:16:45;3.00;;;2.25;;
15616;SDS011;7908;51.688;7.130;2023-06-24T14:19:14;4.15;;;2.60;;
15616;SDS011;7908;51.688;7.130;2023-06-24T14:21:52;3.80;;;2.50;;
15616;SDS011;7908;51.688;7.130;2023-06-24T14:24:36;3.45;;;2.35;;
15616;SDS011;7908;51.688;7.130;2023-06-24T14:27:08;3.30;;;2.92;;
15616;SDS011;7908;51.688;7.130;2023-06-24T14:29:40;3.00;;;2.70;;
15616;SDS011;7908;51.688;7.130;2023-06-24T14:32:11;3.78;;;2.75;;
15616;SDS011;7908;51.688;7.130;2023-06-24T14:34:44;3.10;;;2.70;;
15616;SDS011;7908;51.688;7.130;2023-06-24T14:37:14;3.40;;;2.95;;
15616;SDS011;7908;51.688;7.130;2023-06-24T14:39:48;3.00;;;2.60;;
15616;SDS011;7908;51.688;7.130;2023-06-24T14:42:19;6.18;;;3.00;;
15616;SDS011;7908;51.688;7.130;2023-06-24T14:44:52;4.75;;;3.95;;
15616;SDS011;7908;51.688;7.130;2023-06-24T14:47:55;2.97;;;2.67;;
15616;SDS011;7908;51.688;7.130;2023-06-24T14:50:30;3.53;;;2.55;;
15616;SDS011;7908;51.688;7.130;2023-06-24T14:53:04;6.90;;;4.45;;
15616;SDS011;7908;51.688;7.130;2023-06-24T14:55:55;3.53;;;2.60;;
15616;SDS011;7908;51.688;7.130;2023-06-24T14:58:25;2.75;;;2.45;;
15616;SDS011;7908;51.688;7.130;2023-06-24T15:00:57;3.00;;;2.47;;
15616;SDS011;7908;51.688;7.130;2023-06-24T15:03:26;3.17;;;2.53;;
15616;SDS011;7908;51.688;7.130;2023-06-24T15:06:02;2.60;;;2.40;;
15616;SDS011;7908;51.688;7.130;2023-06-24T15:08:37;3.95;;;3.47;;
15616;SDS011;7908;51.688;7.130;2023-06-24T15:11:10;3.90;;;2.45;;
15616;SDS011;7908;51.688;7.130;2023-06-24T15:13:57;4.85;;;2.83;;
15616;SDS011;7908;51.688;7.130;2023-06-24T15:16:26;3.03;;;2.65;;
15616;SDS011;7908;51.688;7.130;2023-06-24T15:18:58;5.28;;;2.97;;
15616;SDS011;7908;51.688;7.130;2023-06-24T15:21:30;3.78;;;3.25;;
15616;SDS011;7908;51.688;7.130;2023-06-24T15:24:03;4.30;;;3.28;;
15616;SDS011;7908;51.688;7.130;2023-06-24T15:26:35;3.35;;;2.30;;
15616;SDS011;7908;51.688;7.130;2023-06-24T15:29:04;5.88;;;2.80;;